Strona główna
METAR-TAF:

METAR-TAF

Lotnisko :

Port lotniczy Chengdu-Shuangliu

Chengdu, Chiny

Szerokość geograficzna: 30-40N, Długość geograficzna: 104-01E, wysokość: 508 m

Aktualna obserwacja pogody

Raport powstał 23 minut temu, godzina 10:00 UTC
Cisza
Temperatura 8°C
Wilgotność 61%
Ciśnienie 1028 hPa
Widzialność: 6000 m
Rozproszone chmury na wysokości 5000 ft

METAR: ZUUU 121000Z 00000MPS 6000 SCT050 08/01 Q1028 NOSIG

czas: 18:23 (10:23 UTC)

Prognoza

Raport powstał 7 godziny i 48 minut temu, godzina 02:35 UTC
Prognoza ważna od 12 godzina 06 UTC do 13 godzina 06 UTC
Wiatr 6 kt od północ
Widzialność: 5000 m
Rozproszone chmury na wysokości 5000 ft
zamglenie

TAF: ZUUU 120235Z 1206/1306 36003MPS 5000 BR SCT050 TX10/1207Z TN04/1223Z

Obserwacja i prognoza pogody dla ponad 4000 lotnisk (raport METAR i TAF).

Dostępne stacje oznaczono żółtymi i czerwonymi punktami na mapie.

Najedź kursorem aby zobaczyć nazwę stacji.

Kliknij aby zobaczyć obserwacje i prognozy pogody.

Aby zmienić mapę: kliknij na zielony przycisk z czarnym krzyżykiem, aby powiększyć; na zielony przycisk z myślnikiem, aby pomniejszyć; na zielone strzałki, aby przejść do map sąsiednich.


METAR-TAF: